Time;durP1;ratioP1;P1;durP2;ratioP2;P2;SDS_P1;SDS_P2;PMS_P1;PMS_P2;Temp;Humidity;BMP_temperature;BMP_pressure;BME280_temperature;BME280_humidity;BME280_pressure;Samples;Min_cycle;Max_cycle;Signal;HPM_P1;HPM_P2
2023/10/25 00:01:49;;;;;;;17.10;11.30;;;;;;;9.79;69.32;99007.14;107730;1250;65318;-37
2023/10/25 00:04:17;;;;;;;17.50;12.00;;;;;;;9.79;69.48;98999.94;107568;1250;72684;-37
2023/10/25 00:06:45;;;;;;;14.80;12.20;;;;;;;9.78;69.44;98991.42;107728;1250;60206;-37
2023/10/25 00:09:13;;;;;;;19.40;13.00;;;;;;;9.77;69.46;98986.77;107738;1251;59990;-36
2023/10/25 00:11:40;;;;;;;20.50;13.30;;;;;;;9.74;69.43;98983.39;107747;1250;73056;-37
2023/10/25 00:14:08;;;;;;;22.50;13.80;;;;;;;9.72;69.47;98981.90;107738;1250;67913;-37
2023/10/25 00:16:35;;;;;;;19.50;13.80;;;;;;;9.70;69.50;98978.05;107741;1251;72697;-36
2023/10/25 00:19:03;;;;;;;16.70;12.40;;;;;;;9.73;69.50;98971.62;107725;1251;61678;-36
2023/10/25 00:21:31;;;;;;;15.70;11.60;;;;;;;9.78;69.45;98964.73;107761;1250;60066;-36
2023/10/25 00:23:58;;;;;;;18.10;12.30;;;;;;;9.77;69.61;98960.02;107755;1250;72012;-36
2023/10/25 00:26:26;;;;;;;19.30;12.90;;;;;;;9.77;69.63;98957.77;107759;1250;67876;-36
2023/10/25 00:28:54;;;;;;;18.20;13.10;;;;;;;9.78;69.64;98953.60;107735;1253;71407;-36
2023/10/25 00:31:22;;;;;;;20.90;14.30;;;;;;;9.77;69.63;98953.52;107734;1255;59631;-36
2023/10/25 00:33:50;;;;;;;21.40;14.50;;;;;;;9.75;69.72;98939.48;107795;1250;59493;-37
2023/10/25 00:36:18;;;;;;;20.10;14.00;;;;;;;9.73;69.78;98935.81;107574;1257;73057;-36
2023/10/25 00:38:46;;;;;;;18.80;13.00;;;;;;;9.74;69.86;98929.86;107780;1251;66441;-36
2023/10/25 00:41:13;;;;;;;20.40;13.70;;;;;;;9.79;69.87;98928.08;107578;1250;71474;-36
2023/10/25 00:43:41;;;;;;;18.30;13.50;;;;;;;9.78;70.06;98925.91;107756;1251;60399;-37
2023/10/25 00:46:15;;;;;;;19.40;13.10;;;;;;;9.76;70.10;98922.17;107733;1250;60547;-37
2023/10/25 00:48:46;;;;;;;19.90;13.80;;;;;;;9.75;70.26;98917.44;107830;1251;72429;-37
2023/10/25 00:51:15;;;;;;;21.90;14.60;;;;;;;9.74;70.35;98911.23;107784;1250;67905;-37
2023/10/25 00:53:46;;;;;;;20.80;13.10;;;;;;;9.74;70.28;98908.83;107833;1251;72322;-37
2023/10/25 00:56:13;;;;;;;15.00;11.10;;;;;;;9.73;70.48;98907.81;107709;1251;61736;-36
2023/10/25 00:58:47;;;;;;;16.80;12.00;;;;;;;9.79;70.39;98912.70;107653;1253;59175;-37
2023/10/25 01:01:15;;;;;;;19.20;11.40;;;;;;;9.85;70.19;98908.77;107663;1253;73866;-37
2023/10/25 01:03:43;;;;;;;17.60;10.80;;;;;;;9.86;70.29;98906.70;107534;1253;68332;-37
2023/10/25 01:06:11;;;;;;;16.90;11.40;;;;;;;9.87;70.40;98905.71;107639;1253;71422;-37
2023/10/25 01:08:39;;;;;;;16.40;10.90;;;;;;;9.89;70.34;98899.61;107619;1256;60090;-37
2023/10/25 01:11:06;;;;;;;15.20;11.40;;;;;;;9.89;70.32;98894.89;107528;1253;60289;-37
2023/10/25 01:13:34;;;;;;;15.00;10.50;;;;;;;9.88;70.26;98891.95;107618;1252;73843;-37
2023/10/25 01:16:01;;;;;;;14.20;10.40;;;;;;;9.88;70.23;98887.45;107650;1253;67573;-37
2023/10/25 01:18:30;;;;;;;14.80;10.60;;;;;;;9.94;70.12;98888.79;107509;1251;73170;-37
2023/10/25 01:20:57;;;;;;;13.30;9.40;;;;;;;10.04;69.99;98885.20;107643;1253;59636;-37
2023/10/25 01:23:25;;;;;;;12.90;9.70;;;;;;;10.07;69.90;98877.34;107507;1256;60088;-37
2023/10/25 01:25:52;;;;;;;14.00;9.50;;;;;;;10.09;69.81;98874.66;107586;1251;73403;-37
2023/10/25 01:28:20;;;;;;;13.80;9.60;;;;;;;10.10;69.77;98870.35;107599;1251;67608;-37
2023/10/25 01:30:47;;;;;;;13.10;9.70;;;;;;;10.11;69.70;98872.84;107642;1254;72529;-37
2023/10/25 01:33:15;;;;;;;11.90;9.10;;;;;;;10.12;69.60;98872.30;107609;1253;60422;-37
2023/10/25 01:35:42;;;;;;;13.80;10.10;;;;;;;10.11;69.51;98868.03;107507;1251;60531;-37
2023/10/25 01:38:10;;;;;;;12.60;8.90;;;;;;;10.11;69.53;98866.19;107615;1251;73111;-36
2023/10/25 01:40:38;;;;;;;13.70;8.90;;;;;;;10.17;69.37;98859.77;107630;1251;66435;-37
2023/10/25 01:43:06;;;;;;;12.50;8.60;;;;;;;10.24;69.31;98854.91;107606;1253;72658;-37
2023/10/25 01:45:33;;;;;;;16.50;9.20;;;;;;;10.26;69.19;98847.51;107547;1251;60307;-36
2023/10/25 01:48:01;;;;;;;12.00;8.80;;;;;;;10.27;69.11;98846.89;107631;1251;60549;-37
2023/10/25 01:50:28;;;;;;;13.00;8.50;;;;;;;10.28;69.13;98844.59;107538;1251;73883;-37
2023/10/25 01:52:56;;;;;;;12.30;8.70;;;;;;;10.30;69.05;98840.27;107639;1253;67895;-37
2023/10/25 01:55:23;;;;;;;12.40;9.00;;;;;;;10.29;69.06;98834.08;107524;1251;71727;-37
2023/10/25 01:57:51;;;;;;;14.60;9.60;;;;;;;10.29;69.06;98829.89;107639;1251;60398;-37
2023/10/25 02:00:19;;;;;;;10.40;8.50;;;;;;;10.27;69.01;98831.80;107599;1257;60332;-37
2023/10/25 02:02:46;;;;;;;14.40;8.40;;;;;;;10.32;69.02;98829.00;107722;1250;72659;-36
2023/10/25 02:05:14;;;;;;;10.90;7.60;;;;;;;10.37;68.81;98828.82;107566;1250;67616;-37
2023/10/25 02:07:42;;;;;;;13.50;8.30;;;;;;;10.37;68.90;98824.65;107573;1250;72677;-37
2023/10/25 02:10:10;;;;;;;13.70;9.00;;;;;;;10.38;68.87;98821.33;107672;1254;60063;-37
2023/10/25 02:12:37;;;;;;;11.70;8.50;;;;;;;10.39;68.73;98816.77;107580;1251;60319;-37
2023/10/25 02:15:06;;;;;;;15.60;9.00;;;;;;;10.39;68.75;98820.80;107753;1250;72616;-37
2023/10/25 02:17:33;;;;;;;13.50;8.40;;;;;;;10.38;68.79;98819.00;107807;1250;67580;-37
2023/10/25 02:20:01;;;;;;;10.60;8.50;;;;;;;10.38;68.89;98817.52;107620;1250;71708;-37
2023/10/25 02:22:28;;;;;;;12.20;8.40;;;;;;;10.38;68.90;98815.90;107593;1250;60398;-37
2023/10/25 02:24:56;;;;;;;12.90;7.80;;;;;;;10.42;68.82;98812.85;107768;1250;60328;-37
2023/10/25 02:27:25;;;;;;;12.70;8.00;;;;;;;10.49;68.90;98806.27;107815;1250;73769;-37
2023/10/25 02:29:52;;;;;;;13.20;8.50;;;;;;;10.50;68.96;98803.48;107752;1251;66293;-37
2023/10/25 02:32:20;;;;;;;10.70;8.70;;;;;;;10.48;68.93;98804.55;107757;1253;71404;-38
2023/10/25 02:34:47;;;;;;;15.10;9.30;;;;;;;10.46;69.08;98805.15;107639;1253;60396;-37
2023/10/25 02:37:15;;;;;;;13.60;9.60;;;;;;;10.44;69.21;98799.11;107611;1251;60872;-37
2023/10/25 02:39:43;;;;;;;12.40;9.00;;;;;;;10.42;69.27;98802.94;107547;1251;73814;-37
2023/10/25 02:42:12;;;;;;;11.90;9.00;;;;;;;10.40;69.43;98798.05;107745;1256;67878;-37
2023/10/25 02:44:40;;;;;;;13.20;8.50;;;;;;;10.43;69.45;98793.11;107766;1253;71690;-35
2023/10/25 02:47:07;;;;;;;12.30;9.40;;;;;;;10.48;69.58;98783.71;107583;1252;60413;-36
2023/10/25 02:49:35;;;;;;;12.80;9.30;;;;;;;10.45;69.64;98777.42;107766;1256;60307;-36
2023/10/25 02:52:03;;;;;;;14.20;9.30;;;;;;;10.42;69.90;98772.98;107390;1252;73853;-36
2023/10/25 02:54:30;;;;;;;13.80;9.50;;;;;;;10.40;70.09;98769.01;107726;1252;66616;-36
2023/10/25 02:56:58;;;;;;;13.90;10.30;;;;;;;10.33;70.36;98755.79;107744;1252;70387;-36
2023/10/25 02:59:25;;;;;;;15.00;10.30;;;;;;;10.33;70.56;98760.10;107541;1253;61674;-36
2023/10/25 03:01:53;;;;;;;14.50;10.30;;;;;;;10.34;70.57;98757.89;107632;1253;59155;-36
2023/10/25 03:04:22;;;;;;;15.30;10.20;;;;;;;10.38;70.76;98752.65;107702;1252;72647;-36
2023/10/25 03:06:49;;;;;;;17.50;11.50;;;;;;;10.36;71.04;98752.09;107650;1253;67596;-36
2023/10/25 03:09:17;;;;;;;15.20;11.30;;;;;;;10.35;71.22;98756.11;107697;1253;72684;-36
2023/10/25 03:11:44;;;;;;;17.80;11.80;;;;;;;10.33;71.50;98751.45;107674;1252;60411;-36
2023/10/25 03:14:12;;;;;;;17.50;12.00;;;;;;;10.33;71.60;98749.58;107714;1252;59609;-36
2023/10/25 03:16:39;;;;;;;14.50;11.20;;;;;;;10.31;71.87;98745.70;107704;1253;73889;-36
2023/10/25 03:19:07;;;;;;;17.30;11.00;;;;;;;10.34;71.92;98742.70;107635;1253;67877;-36
2023/10/25 03:21:35;;;;;;;16.80;11.00;;;;;;;10.39;71.92;98734.23;107661;1253;71468;-36
2023/10/25 03:24:03;;;;;;;15.00;10.70;;;;;;;10.39;72.15;98730.98;107667;1253;59343;-36
2023/10/25 03:26:30;;;;;;;16.70;11.80;;;;;;;10.39;72.48;98724.73;107592;1253;60314;-36
2023/10/25 03:28:58;;;;;;;17.50;11.70;;;;;;;10.39;72.48;98720.84;107684;1253;73848;-37
2023/10/25 03:31:25;;;;;;;14.30;11.70;;;;;;;10.37;72.61;98720.90;107705;1253;65832;-37
2023/10/25 03:33:53;;;;;;;16.20;11.30;;;;;;;10.36;72.85;98722.22;107710;1253;72668;-37
2023/10/25 03:36:21;;;;;;;16.50;10.00;;;;;;;10.40;72.95;98716.29;107705;1253;61681;-37
2023/10/25 03:38:48;;;;;;;16.00;11.20;;;;;;;10.46;72.99;98718.42;107742;1252;60995;-37
2023/10/25 03:41:16;;;;;;;17.10;11.20;;;;;;;10.46;73.25;98717.51;107724;1253;74250;-37
2023/10/25 03:43:43;;;;;;;15.30;11.50;;;;;;;10.44;73.46;98712.92;107695;1256;67823;-37
2023/10/25 03:46:11;;;;;;;14.30;11.40;;;;;;;10.41;73.62;98710.09;107695;1253;72007;-37
2023/10/25 03:48:39;;;;;;;16.50;11.30;;;;;;;10.39;73.90;98710.55;107674;1252;60389;-36
2023/10/25 03:51:07;;;;;;;17.70;11.00;;;;;;;10.41;73.97;98707.86;107680;1252;60036;-36
2023/10/25 03:53:35;;;;;;;15.30;11.30;;;;;;;10.46;74.02;98703.25;107635;1257;72552;-37
2023/10/25 03:56:03;;;;;;;16.50;11.40;;;;;;;10.45;74.14;98702.17;107595;1252;67930;-36
2023/10/25 03:58:31;;;;;;;21.30;12.20;;;;;;;10.41;74.44;98696.47;107713;1253;72650;-37
2023/10/25 04:01:00;;;;;;;19.90;12.90;;;;;;;10.37;74.64;98700.08;107694;1253;60409;-37
2023/10/25 04:03:28;;;;;;;20.90;12.20;;;;;;;10.34;74.84;98698.12;107662;1251;60326;-37
2023/10/25 04:05:56;;;;;;;15.40;10.70;;;;;;;10.37;75.13;98700.55;107643;1253;72582;-37
2023/10/25 04:08:23;;;;;;;15.50;11.10;;;;;;;10.42;75.40;98695.79;107630;1253;67596;-36
2023/10/25 04:10:52;;;;;;;19.70;12.40;;;;;;;10.44;75.56;98691.10;107691;1253;71779;-36
2023/10/25 04:13:19;;;;;;;16.60;11.90;;;;;;;10.44;75.89;98687.46;107592;1253;60419;-37
2023/10/25 04:16:01;;;;;;;15.30;12.30;;;;;;;10.40;76.04;98682.30;107728;1253;60368;-37
2023/10/25 04:18:30;;;;;;;16.10;12.20;;;;;;;10.37;76.46;98675.52;107617;1253;73841;-37
2023/10/25 04:20:59;;;;;;;17.20;11.60;;;;;;;10.40;76.50;98673.63;107778;1253;67874;-36
2023/10/25 04:23:31;;;;;;;16.40;12.10;;;;;;;10.42;76.68;98667.67;107692;1253;72667;-37
2023/10/25 04:26:05;;;;;;;20.60;13.30;;;;;;;10.38;77.08;98671.30;107721;1253;60531;-37
2023/10/25 04:28:33;;;;;;;19.90;13.50;;;;;;;10.35;77.53;98669.19;107670;1253;60414;-36
2023/10/25 04:31:01;;;;;;;17.30;12.00;;;;;;;10.34;77.81;98665.76;107748;1253;73866;-37
2023/10/25 04:33:29;;;;;;;16.90;11.90;;;;;;;10.35;77.81;98660.13;107620;1253;67573;-36
2023/10/25 04:35:57;;;;;;;16.60;12.50;;;;;;;10.37;78.00;98655.87;107720;1253;72670;-37
2023/10/25 04:38:24;;;;;;;19.00;12.70;;;;;;;10.33;78.28;98653.90;107730;1252;60345;-36
2023/10/25 04:40:52;;;;;;;18.30;13.50;;;;;;;10.25;78.60;98643.23;107644;1253;60375;-37
2023/10/25 04:43:20;;;;;;;20.10;13.30;;;;;;;10.21;79.06;98640.42;107812;1253;73800;-36
2023/10/25 04:45:48;;;;;;;20.90;13.10;;;;;;;10.20;79.29;98632.36;107634;1253;67561;-37
2023/10/25 04:48:15;;;;;;;17.10;12.40;;;;;;;10.22;79.42;98630.36;107659;1253;72632;-36
2023/10/25 04:50:43;;;;;;;18.10;12.90;;;;;;;10.22;79.60;98622.94;107666;1257;60409;-36
2023/10/25 04:53:11;;;;;;;21.00;13.80;;;;;;;10.22;79.97;98625.34;107649;1252;60491;-37
2023/10/25 04:55:40;;;;;;;22.70;14.40;;;;;;;10.16;80.20;98617.60;107648;1252;73893;-36
2023/10/25 04:58:08;;;;;;;19.60;13.80;;;;;;;10.09;80.62;98617.92;107346;1253;66516;-36
2023/10/25 05:00:35;;;;;;;18.60;13.10;;;;;;;10.09;80.67;98613.04;107643;1253;71211;-36
2023/10/25 05:03:05;;;;;;;17.20;13.30;;;;;;;10.13;80.98;98606.49;107596;1253;60524;-36
2023/10/25 05:05:33;;;;;;;18.90;13.90;;;;;;;10.12;81.21;98603.17;107661;1257;60293;-36
2023/10/25 05:08:01;;;;;;;22.30;14.40;;;;;;;10.09;81.46;98594.31;107644;1251;73955;-36
2023/10/25 05:10:29;;;;;;;18.40;14.30;;;;;;;10.07;81.81;98593.99;107685;1257;67622;-37
2023/10/25 05:12:57;;;;;;;17.60;12.80;;;;;;;10.11;81.83;98586.42;107709;1253;71856;-36
2023/10/25 05:15:27;;;;;;;19.40;14.10;;;;;;;10.16;81.80;98586.27;107704;1252;60389;-37
2023/10/25 05:17:55;;;;;;;;;;;;;;;10.14;82.01;98583.98;107720;1252;60422;-37
2023/10/25 05:20:23;;;;;;;16.70;13.00;;;;;;;10.09;82.32;98579.84;107672;1253;73874;-36
2023/10/25 05:22:52;;;;;;;19.30;14.20;;;;;;;10.05;82.66;98569.61;107697;1256;67924;-36
2023/10/25 05:25:21;;;;;;;17.00;12.50;;;;;;;10.06;82.71;98568.61;107691;1256;72674;-36
2023/10/25 05:27:49;;;;;;;;;;;;;;;10.08;82.87;98568.15;107633;1257;60274;-36
2023/10/25 05:30:17;;;;;;;18.30;13.70;;;;;;;10.06;83.08;98563.58;107643;1252;60465;-36
2023/10/25 05:32:46;;;;;;;20.20;14.20;;;;;;;10.04;83.61;98560.23;107707;1253;73911;-37
2023/10/25 05:35:15;;;;;;;18.30;13.80;;;;;;;10.01;83.66;98557.66;107740;1251;66604;-36
2023/10/25 05:37:43;;;;;;;17.90;12.70;;;;;;;10.07;83.54;98556.85;107706;1253;72892;-37
2023/10/25 05:40:12;;;;;;;18.80;12.90;;;;;;;10.13;83.69;98551.39;107647;1253;60307;-36
2023/10/25 05:42:47;;;;;;;17.70;12.60;;;;;;;10.15;84.01;98548.20;107711;1253;60602;-37
2023/10/25 05:45:15;;;;;;;19.40;12.40;;;;;;;10.14;84.14;98543.52;107779;1251;73915;-37
2023/10/25 05:47:43;;;;;;;19.80;12.20;;;;;;;10.14;84.40;98541.58;107693;1253;67559;-36
2023/10/25 05:50:12;;;;;;;13.80;11.40;;;;;;;10.18;84.47;98535.14;107720;1253;72514;-36
2023/10/25 05:52:44;;;;;;;17.20;11.60;;;;;;;10.25;84.46;98531.94;107728;1256;60396;-36
2023/10/25 05:55:14;;;;;;;17.80;12.60;;;;;;;10.26;84.65;98531.71;107731;1253;60407;-36
2023/10/25 05:57:42;;;;;;;15.30;12.30;;;;;;;10.25;84.85;98528.85;107680;1253;72594;-37
2023/10/25 06:00:11;;;;;;;17.40;11.70;;;;;;;10.24;85.12;98529.39;107625;1257;67880;-36
2023/10/25 06:02:38;;;;;;;13.60;9.70;;;;;;;10.30;85.21;98522.83;107694;1253;71370;-37
2023/10/25 06:05:07;;;;;;;14.60;10.40;;;;;;;10.36;85.03;98515.37;107520;1253;60379;-37
2023/10/25 06:07:39;;;;;;;15.30;10.20;;;;;;;10.37;85.28;98510.73;107657;1253;59704;-36
2023/10/25 06:10:07;;;;;;;12.80;9.90;;;;;;;10.39;85.53;98509.42;107694;1253;73940;-36
2023/10/25 06:12:36;;;;;;;10.20;9.10;;;;;;;10.39;85.41;98506.95;107678;1253;66445;-36
2023/10/25 06:15:04;;;;;;;12.50;9.40;;;;;;;10.42;85.34;98503.80;107607;1253;71431;-37
2023/10/25 06:17:32;;;;;;;11.80;8.80;;;;;;;10.46;85.23;98497.23;107701;1252;60440;-36
2023/10/25 06:19:59;;;;;;;13.80;10.20;;;;;;;10.47;85.38;98494.98;107581;1253;59869;-37
2023/10/25 06:22:27;;;;;;;12.40;9.30;;;;;;;10.46;85.47;98489.71;107657;1251;73058;-36
2023/10/25 06:24:55;;;;;;;12.00;8.60;;;;;;;10.45;85.63;98491.88;107662;1253;67548;-37
2023/10/25 06:27:23;;;;;;;10.00;7.80;;;;;;;10.51;85.61;98485.48;107595;1253;72725;-36
2023/10/25 06:29:50;;;;;;;9.40;7.50;;;;;;;10.56;85.37;98479.46;107603;1253;60322;-36
2023/10/25 06:32:18;;;;;;;11.00;7.70;;;;;;;10.56;85.45;98479.15;107641;1253;60544;-37
2023/10/25 06:34:45;;;;;;;10.00;7.70;;;;;;;10.56;85.75;98476.21;107653;1253;72577;-37
2023/10/25 06:37:14;;;;;;;9.40;7.30;;;;;;;10.54;85.74;98473.12;107619;1253;67409;-37
2023/10/25 06:39:42;;;;;;;9.20;7.10;;;;;;;10.57;85.79;98476.85;107647;1253;72413;-36
2023/10/25 06:42:11;;;;;;;10.60;7.30;;;;;;;10.63;85.69;98477.80;107659;1256;60388;-36
2023/10/25 06:44:39;;;;;;;10.50;8.40;;;;;;;10.66;85.78;98478.50;107718;1253;60571;-36
2023/10/25 06:47:09;;;;;;;15.90;8.20;;;;;;;10.65;85.89;98478.81;107676;1252;73866;-37
2023/10/25 06:49:37;;;;;;;10.90;7.30;;;;;;;10.66;85.94;98469.83;107708;1253;67901;-37
2023/10/25 06:52:06;;;;;;;8.60;7.30;;;;;;;10.72;85.83;98473.04;107645;1254;71376;-36
2023/10/25 06:54:34;;;;;;;10.40;7.50;;;;;;;10.77;85.63;98476.08;107643;1253;60334;-36
2023/10/25 06:57:02;;;;;;;8.50;7.10;;;;;;;10.79;85.66;98475.39;107665;1252;60388;-37
2023/10/25 06:59:30;;;;;;;14.00;7.50;;;;;;;10.77;85.67;98470.20;107675;1253;73853;-36
2023/10/25 07:02:14;;;;;;;10.00;7.30;;;;;;;10.74;85.61;98467.63;107696;1253;66785;-37
2023/10/25 07:04:41;;;;;;;8.20;6.50;;;;;;;10.75;85.48;98467.46;107638;1252;72638;-37
2023/10/25 07:07:09;;;;;;;9.60;6.70;;;;;;;10.79;85.58;98463.07;107648;1252;60238;-37
2023/10/25 07:09:37;;;;;;;11.40;7.20;;;;;;;10.82;85.72;98459.59;107524;1254;60418;-36
2023/10/25 07:12:05;;;;;;;7.10;6.00;;;;;;;10.80;85.74;98453.85;107643;1254;72849;-36
2023/10/25 07:14:33;;;;;;;7.90;6.20;;;;;;;10.79;85.87;98456.64;107632;1254;67815;-36
2023/10/25 07:17:00;;;;;;;8.70;6.10;;;;;;;10.83;85.72;98448.75;107624;1254;72691;-36
2023/10/25 07:19:28;;;;;;;8.80;7.00;;;;;;;10.87;85.50;98449.30;107628;1256;60507;-36
2023/10/25 07:21:56;;;;;;;7.80;5.80;;;;;;;10.88;85.69;98441.56;107656;1253;60415;-36
2023/10/25 07:24:23;;;;;;;9.30;6.90;;;;;;;10.87;85.89;98437.85;107627;1256;72308;-36
2023/10/25 07:26:51;;;;;;;9.60;6.00;;;;;;;10.86;85.82;98434.27;107665;1253;67916;-36
2023/10/25 07:29:18;;;;;;;7.40;5.10;;;;;;;10.89;85.69;98428.47;107625;1253;72729;-36
2023/10/25 07:31:46;;;;;;;9.10;5.80;;;;;;;10.93;85.56;98417.02;107632;1251;60443;-36
2023/10/25 07:34:14;;;;;;;8.30;5.50;;;;;;;10.91;85.64;98409.96;107648;1253;60355;-37
2023/10/25 07:36:42;;;;;;;8.10;6.10;;;;;;;10.88;85.81;98412.73;107633;1252;74348;-36
2023/10/25 07:39:09;;;;;;;6.50;5.20;;;;;;;10.85;86.03;98409.31;107650;1251;67814;-37
2023/10/25 07:41:39;;;;;;;;;;;;;;;10.89;86.04;98411.81;107606;1256;73829;-36
2023/10/25 07:44:07;;;;;;;6.30;4.80;;;;;;;10.94;85.86;98405.00;107626;1253;60964;-37
2023/10/25 07:46:35;;;;;;;7.00;5.20;;;;;;;10.94;86.13;98403.78;107641;1258;60346;-37
2023/10/25 07:49:03;;;;;;;6.60;4.90;;;;;;;10.93;86.21;98398.97;107641;1253;73937;-37
2023/10/25 07:51:30;;;;;;;7.00;4.40;;;;;;;10.92;86.16;98390.52;107659;1254;66411;-37
2023/10/25 07:53:58;;;;;;;6.50;4.30;;;;;;;10.95;86.03;98392.30;107641;1256;72757;-37
2023/10/25 07:56:25;;;;;;;5.10;4.20;;;;;;;11.00;85.84;98393.92;107617;1254;60380;-37
2023/10/25 07:58:56;;;;;;;5.80;4.60;;;;;;;10.99;86.11;98389.27;107655;1253;60417;-36
2023/10/25 08:01:24;;;;;;;5.50;4.50;;;;;;;10.99;86.27;98378.45;107667;1253;73770;-35
2023/10/25 08:03:51;;;;;;;5.90;4.20;;;;;;;10.97;86.18;98384.17;107688;1251;67596;-36
2023/10/25 08:06:19;;;;;;;5.00;3.90;;;;;;;10.99;86.10;98383.16;107625;1252;70998;-36
2023/10/25 08:08:49;;;;;;;4.50;4.00;;;;;;;11.04;86.01;98378.83;107638;1253;60432;-36
2023/10/25 08:11:16;;;;;;;5.20;3.90;;;;;;;11.02;86.03;98374.89;107645;1254;60400;-36
2023/10/25 08:13:44;;;;;;;5.20;4.50;;;;;;;11.01;86.22;98372.86;107659;1253;71644;-36
2023/10/25 08:16:11;;;;;;;6.00;4.10;;;;;;;11.01;86.31;98370.70;107638;1253;65744;-36
2023/10/25 08:18:39;;;;;;;4.50;3.60;;;;;;;11.06;86.04;98374.03;107614;1254;70999;-36
2023/10/25 08:21:12;;;;;;;5.00;3.90;;;;;;;11.09;85.85;98370.69;107623;1253;60319;-36
2023/10/25 08:23:40;;;;;;;6.10;4.20;;;;;;;11.09;86.04;98372.55;107680;1252;60428;-36
2023/10/25 08:26:07;;;;;;;5.60;4.10;;;;;;;11.07;86.15;98371.33;107622;1257;73918;-36
2023/10/25 08:28:37;;;;;;;4.60;3.50;;;;;;;11.07;86.03;98364.27;107632;1253;68102;-36
2023/10/25 08:31:12;;;;;;;5.80;3.70;;;;;;;11.10;85.87;98368.60;107641;1253;71570;-36
2023/10/25 08:33:40;;;;;;;3.90;3.50;;;;;;;11.15;85.68;98359.70;107673;1254;60875;-36
2023/10/25 08:36:08;;;;;;;5.40;4.10;;;;;;;11.16;85.78;98354.20;107624;1253;60274;-36
2023/10/25 08:38:36;;;;;;;5.50;4.10;;;;;;;11.13;85.76;98346.45;107713;1251;72629;-36
2023/10/25 08:41:04;;;;;;;5.30;3.70;;;;;;;11.12;85.83;98342.19;107637;1257;66461;-36
2023/10/25 08:43:32;;;;;;;5.00;3.50;;;;;;;11.15;85.72;98344.75;107689;1256;72644;-36
2023/10/25 08:46:04;;;;;;;4.10;3.70;;;;;;;11.20;85.63;98339.16;107686;1254;59453;-36
2023/10/25 08:48:32;;;;;;;4.80;3.40;;;;;;;11.22;85.80;98339.33;107507;1257;169497;-37
2023/10/25 08:52:02;;;;;;;4.20;3.70;;;;;;;11.22;85.74;98339.16;104604;1286;600321;-36
2023/10/25 08:54:29;;;;;;;5.50;3.50;;;;;;;11.21;85.79;98331.57;106636;1267;60499;-36
2023/10/25 08:56:57;;;;;;;4.50;3.60;;;;;;;11.26;85.55;98328.15;106635;1267;59231;-36
2023/10/25 08:59:25;;;;;;;4.40;3.40;;;;;;;11.30;85.25;98322.64;106560;1267;72283;-36
2023/10/25 09:01:52;;;;;;;5.70;3.80;;;;;;;11.29;85.39;98314.81;106622;1267;67793;-36
2023/10/25 09:04:20;;;;;;;4.60;3.30;;;;;;;11.30;85.59;98313.27;106491;1267;72706;-36
2023/10/25 09:06:48;;;;;;;3.40;3.10;;;;;;;11.29;85.73;98305.04;106601;1267;169070;-35
2023/10/25 09:09:15;;;;;;;3.30;3.00;;;;;;;11.34;85.37;98305.44;106758;1263;60121;-36
2023/10/25 09:11:44;;;;;;;3.70;3.10;;;;;;;11.38;85.20;98295.27;106812;1269;72351;-36
2023/10/25 09:14:13;;;;;;;4.30;3.30;;;;;;;11.37;85.23;98293.64;106859;1264;67803;-36
2023/10/25 09:16:42;;;;;;;4.50;3.30;;;;;;;11.35;85.43;98295.19;106793;1269;72705;-36
2023/10/25 09:19:10;;;;;;;3.20;2.90;;;;;;;11.34;85.67;98291.31;106841;1264;60571;-36
2023/10/25 09:21:38;;;;;;;3.50;2.70;;;;;;;11.40;85.44;98289.38;106748;1263;60043;-36
2023/10/25 09:24:09;;;;;;;3.30;3.00;;;;;;;11.43;85.08;98279.66;106825;1269;73109;-36
2023/10/25 09:26:39;;;;;;;3.90;2.90;;;;;;;11.43;85.33;98271.60;106758;1269;67839;-36
2023/10/25 09:29:09;;;;;;;3.90;3.20;;;;;;;11.43;85.40;98265.33;106783;1264;71006;-36
2023/10/25 09:31:37;;;;;;;5.00;3.00;;;;;;;11.41;85.27;98250.45;106802;1264;60976;-36
2023/10/25 09:34:08;;;;;;;4.70;2.60;;;;;;;11.42;85.00;98248.60;106780;1268;60130;-36
2023/10/25 09:36:36;;;;;;;3.20;2.80;;;;;;;11.41;84.91;98250.14;106719;1269;73129;-36
2023/10/25 09:39:04;;;;;;;3.80;2.90;;;;;;;11.37;85.17;98250.39;106651;1269;67901;-36
2023/10/25 09:41:36;;;;;;;3.60;2.80;;;;;;;11.33;85.49;98240.23;106835;1264;72785;-36
2023/10/25 09:44:06;;;;;;;3.50;2.90;;;;;;;11.32;85.68;98233.48;106699;1263;61690;-36
2023/10/25 09:46:34;;;;;;;3.40;2.60;;;;;;;11.38;85.60;98230.77;106762;1264;60072;-36
2023/10/25 09:49:06;;;;;;;3.20;2.80;;;;;;;11.41;85.57;98230.68;106802;1264;73231;-36
2023/10/25 09:51:55;;;;;;;3.00;2.70;;;;;;;11.40;85.84;98219.83;106851;1264;67806;-35
2023/10/25 09:54:24;;;;;;;3.50;2.80;;;;;;;11.39;86.07;98230.21;106848;1267;72733;-36
2023/10/25 09:56:52;;;;;;;3.40;2.90;;;;;;;11.40;86.01;98228.27;106622;1264;60454;-36
2023/10/25 09:59:19;;;;;;;2.60;2.40;;;;;;;11.46;85.88;98221.20;106638;1263;60116;-36
2023/10/25 10:01:47;;;;;;;3.00;2.60;;;;;;;11.51;85.72;98209.48;106744;1268;71851;-36
2023/10/25 10:04:39;;;;;;;3.00;2.70;;;;;;;11.50;85.80;98206.85;106790;1264;66901;-36
2023/10/25 10:07:34;;;;;;;3.50;3.10;;;;;;;11.49;85.85;98194.36;106820;1264;72777;-36
2023/10/25 10:10:23;;;;;;;4.50;2.70;;;;;;;11.49;85.84;98192.19;106788;1267;60483;-36
2023/10/25 10:12:51;;;;;;;3.50;2.30;;;;;;;11.53;85.69;98189.45;106794;1264;59627;-36
2023/10/25 10:15:19;;;;;;;3.70;2.70;;;;;;;11.55;85.86;98189.92;106765;1269;73112;-35
2023/10/25 10:17:47;;;;;;;3.80;2.60;;;;;;;11.56;86.07;98183.26;106694;1272;66586;-35
2023/10/25 10:20:27;;;;;;;3.40;2.70;;;;;;;11.55;86.10;98178.06;106774;1267;73181;-36
2023/10/25 10:23:02;;;;;;;4.00;2.80;;;;;;;11.58;86.23;98171.54;106663;1269;61744;-36
2023/10/25 10:25:46;;;;;;;4.90;2.60;;;;;;;11.66;86.07;98171.26;106651;1264;60128;-36
2023/10/25 10:28:14;;;;;;;4.10;2.60;;;;;;;11.72;86.00;98169.29;106800;1269;71915;-36
2023/10/25 10:30:42;;;;;;;3.00;2.70;;;;;;;11.72;86.24;98166.89;106727;1269;65911;-36
2023/10/25 10:33:11;;;;;;;3.50;2.80;;;;;;;11.73;86.32;98160.70;106743;1267;72810;-35
2023/10/25 10:36:02;;;;;;;2.70;2.30;;;;;;;11.79;86.04;98154.54;106732;1270;59717;-36
2023/10/25 10:39:10;;;;;;;4.50;2.70;;;;;;;11.86;85.87;98146.21;106633;1264;59538;-36
2023/10/25 10:41:41;;;;;;;3.90;2.80;;;;;;;11.85;85.80;98142.57;106673;1264;73066;-36
2023/10/25 10:44:11;;;;;;;4.40;2.60;;;;;;;11.81;85.88;98136.30;106806;1268;68029;-36
2023/10/25 10:46:51;;;;;;;2.60;2.30;;;;;;;11.80;85.91;98129.26;106855;1267;72653;-36
2023/10/25 10:49:19;;;;;;;;;;;;;;;11.84;85.88;98128.38;106776;1269;60495;-36
2023/10/25 10:51:48;;;;;;;4.80;3.20;;;;;;;11.87;85.80;98122.77;106755;1265;59528;-36
2023/10/25 10:54:16;;;;;;;3.10;2.50;;;;;;;11.88;86.19;98116.02;106820;1267;71848;-36
2023/10/25 10:56:44;;;;;;;3.70;2.90;;;;;;;11.88;86.13;98108.56;106752;1267;66341;-36
2023/10/25 10:59:12;;;;;;;3.50;2.60;;;;;;;11.85;86.17;98101.77;107212;1262;72744;-36
2023/10/25 11:01:39;;;;;;;2.90;2.30;;;;;;;11.89;86.03;98100.64;107023;1257;60460;-36
2023/10/25 11:04:07;;;;;;;4.30;2.50;;;;;;;11.93;85.83;98101.62;107219;1264;59656;-36
2023/10/25 11:06:35;;;;;;;3.40;2.40;;;;;;;11.92;85.93;98103.02;107211;1261;73185;-36
2023/10/25 11:09:03;;;;;;;2.90;2.60;;;;;;;11.88;86.32;98093.60;107221;1257;68160;-36
2023/10/25 11:11:31;;;;;;;2.70;2.40;;;;;;;11.90;86.26;98087.92;107080;1257;72770;-36
2023/10/25 11:13:58;;;;;;;2.20;2.00;;;;;;;11.93;86.05;98079.89;107071;1257;61778;-36
2023/10/25 11:16:26;;;;;;;4.00;2.90;;;;;;;11.95;85.91;98077.10;107242;1260;60744;-36
2023/10/25 11:19:07;;;;;;;3.00;2.60;;;;;;;11.93;85.97;98078.66;107193;1257;72300;-36
2023/10/25 11:21:35;;;;;;;4.90;3.30;;;;;;;11.90;86.11;98075.96;107237;1258;67731;-36
2023/10/25 11:24:06;;;;;;;3.60;2.90;;;;;;;11.87;86.34;98071.70;107027;1262;70982;-36
2023/10/25 11:26:37;;;;;;;4.10;2.90;;;;;;;11.91;86.25;98071.23;107038;1257;60268;-36
2023/10/25 11:29:06;;;;;;;4.60;3.20;;;;;;;11.98;86.28;98066.35;107195;1257;60155;-36